Observation data for Olton on 01/20/2019      Previous  Date  Next       Current Mesonet Observations  Soil Data  Daily Summary Page  Observations in Plain Language
KONS 200600Z 17008KT M03/M06 A3027 RMK A01 T10281060  RH  080%=      5-min Rain = 0
KONS 200605Z 18008KT M03/M06 A3027 RMK A01 T10281059  RH  081%=      5-min Rain = 0
KONS 200610Z 18008KT M03/M06 A3027 RMK A01 T10301060  RH  080%=      5-min Rain = 0
KONS 200615Z 18008KT M03/M06 A3027 RMK A01 T10341063  RH  081%=      5-min Rain = 0
KONS 200620Z 18008KT M04/M06 A3027 RMK A01 T10351062  RH  083%=      5-min Rain = 0
KONS 200625Z 18008KT M03/M06 A3027 RMK A01 T10341061  RH  083%=      5-min Rain = 0
KONS 200630Z 18008KT M03/M06 A3027 RMK A01 T10341061  RH  083%=      5-min Rain = 0
KONS 200635Z 17008KT M03/M06 A3027 RMK A01 T10341061  RH  082%=      5-min Rain = 0
KONS 200640Z 17009KT M03/M06 A3026 RMK A01 T10331058  RH  083%=      5-min Rain = 0
KONS 200645Z 17009KT M03/M06 A3026 RMK A01 T10281056  RH  082%=      5-min Rain = 0
KONS 200650Z 17009KT M03/M06 A3026 RMK A01 T10261056  RH  081%=      5-min Rain = 0
KONS 200655Z 17009KT M03/M06 A3026 RMK A01 T10251056  RH  080%=      5-min Rain = 0
KONS 200700Z 16008KT M03/M06 A3026 RMK A01 T10251056  RH  080%=      5-min Rain = 0
KONS 200705Z 16008KT M03/M06 A3026 RMK A01 T10271058  RH  080%=      5-min Rain = 0
KONS 200710Z 17009KT M03/M06 A3026 RMK A01 T10281058  RH  081%=      5-min Rain = 0
KONS 200715Z 18009KT M03/M06 A3026 RMK A01 T10271056  RH  081%=      5-min Rain = 0
KONS 200720Z 18009KT M03/M06 A3026 RMK A01 T10301060  RH  080%=      5-min Rain = 0
KONS 200725Z 18009KT M03/M06 A3026 RMK A01 T10331060  RH  082%=      5-min Rain = 0
KONS 200730Z 18008KT M03/M06 A3026 RMK A01 T10341061  RH  083%=      5-min Rain = 0
KONS 200735Z 18008KT M04/M06 A3026 RMK A01 T10361062  RH  083%=      5-min Rain = 0
KONS 200740Z 18008KT M04/M06 A3026 RMK A01 T10351060  RH  084%=      5-min Rain = 0
KONS 200745Z 17007KT M03/M06 A3026 RMK A01 T10331059  RH  083%=      5-min Rain = 0
KONS 200750Z 17007KT M03/M06 A3026 RMK A01 T10341060  RH  083%=      5-min Rain = 0
KONS 200755Z 17006KT M04/M06 A3026 RMK A01 T10351061  RH  083%=      5-min Rain = 0
KONS 200800Z 18008KT M04/M06 A3026 RMK A01 T10371062  RH  084%=      5-min Rain = 0
KONS 200805Z 18008KT M04/M06 A3026 RMK A01 T10361060  RH  084%=      5-min Rain = 0
KONS 200810Z 18008KT M03/M06 A3026 RMK A01 T10341059  RH  084%=      5-min Rain = 0
KONS 200815Z 18008KT M03/M06 A3026 RMK A01 T10341060  RH  084%=      5-min Rain = 0
KONS 200820Z 19008KT M04/M06 A3026 RMK A01 T10381063  RH  084%=      5-min Rain = 0
KONS 200825Z 19008KT M04/M06 A3026 RMK A01 T10401063  RH  085%=      5-min Rain = 0
KONS 200830Z 19008KT M04/M06 A3026 RMK A01 T10391061  RH  085%=      5-min Rain = 0
KONS 200835Z 18008KT M04/M06 A3026 RMK A01 T10371060  RH  086%=      5-min Rain = 0
KONS 200840Z 18008KT M04/M06 A3026 RMK A01 T10381061  RH  085%=      5-min Rain = 0
KONS 200845Z 18008KT M04/M06 A3026 RMK A01 T10371060  RH  085%=      5-min Rain = 0
KONS 200850Z 18008KT M04/M06 A3026 RMK A01 T10371060  RH  085%=      5-min Rain = 0
KONS 200855Z 18008KT M04/M06 A3026 RMK A01 T10381061  RH  085%=      5-min Rain = 0
KONS 200900Z 18007KT M04/M06 A3026 RMK A01 T10381060  RH  086%=      5-min Rain = 0
KONS 200905Z 18008KT M04/M06 A3026 RMK A01 T10381060  RH  086%=      5-min Rain = 0
KONS 200910Z 18009KT M04/M06 A3026 RMK A01 T10381060  RH  086%=      5-min Rain = 0
KONS 200915Z 17008KT M04/M06 A3026 RMK A01 T10361058  RH  086%=      5-min Rain = 0
KONS 200920Z 17009KT M03/M06 A3026 RMK A01 T10341056  RH  086%=      5-min Rain = 0
KONS 200925Z 17008KT M03/M06 A3026 RMK A01 T10321055  RH  085%=      5-min Rain = 0
KONS 200930Z 18009KT M03/M06 A3025 RMK A01 T10321055  RH  085%=      5-min Rain = 0
KONS 200935Z 18009KT M03/M06 A3025 RMK A01 T10331056  RH  085%=      5-min Rain = 0
KONS 200940Z 17008KT M03/M06 A3025 RMK A01 T10331056  RH  086%=      5-min Rain = 0
KONS 200945Z 17008KT M03/M06 A3026 RMK A01 T10331056  RH  085%=      5-min Rain = 0
KONS 200950Z 17008KT M03/M06 A3025 RMK A01 T10341056  RH  086%=      5-min Rain = 0
KONS 200955Z 17008KT M04/M06 A3025 RMK A01 T10351057  RH  085%=      5-min Rain = 0
KONS 201000Z 18008KT M04/M06 A3025 RMK A01 T10351057  RH  086%=      5-min Rain = 0
KONS 201005Z 17007KT M03/M06 A3025 RMK A01 T10341056  RH  086%=      5-min Rain = 0
KONS 201010Z 17008KT M04/M06 A3025 RMK A01 T10361058  RH  086%=      5-min Rain = 0
KONS 201015Z 18008KT M04/M06 A3025 RMK A01 T10361056  RH  087%=      5-min Rain = 0
KONS 201020Z 17007KT M04/M06 A3025 RMK A01 T10361057  RH  086%=      5-min Rain = 0
KONS 201025Z 17007KT M04/M06 A3025 RMK A01 T10371058  RH  086%=      5-min Rain = 0
KONS 201030Z 17006KT M04/M06 A3025 RMK A01 T10371058  RH  087%=      5-min Rain = 0
KONS 201035Z 17006KT M04/M06 A3025 RMK A01 T10381059  RH  087%=      5-min Rain = 0
KONS 201040Z 17007KT M04/M06 A3025 RMK A01 T10401059  RH  087%=      5-min Rain = 0
KONS 201045Z 16007KT M04/M06 A3024 RMK A01 T10411061  RH  087%=      5-min Rain = 0
KONS 201050Z 17007KT M04/M06 A3024 RMK A01 T10431062  RH  088%=      5-min Rain = 0
KONS 201055Z 16007KT M04/M06 A3024 RMK A01 T10441063  RH  088%=      5-min Rain = 0
KONS 201100Z 17006KT M05/M06 A3024 RMK A01 T10461064  RH  088%=      5-min Rain = 0
KONS 201105Z 17008KT M05/M06 A3024 RMK A01 T10471064  RH  089%=      5-min Rain = 0
KONS 201110Z 17008KT M05/M06 A3024 RMK A01 T10451060  RH  090%=      5-min Rain = 0
KONS 201115Z 16007KT M04/M06 A3024 RMK A01 T10431060  RH  089%=      5-min Rain = 0
KONS 201120Z 16007KT M04/M06 A3023 RMK A01 T10441060  RH  089%=      5-min Rain = 0
KONS 201125Z 17008KT M04/M06 A3023 RMK A01 T10441060  RH  089%=      5-min Rain = 0
KONS 201130Z 16009KT M04/M06 A3023 RMK A01 T10441060  RH  090%=      5-min Rain = 0
KONS 201135Z 17009KT M04/M06 A3022 RMK A01 T10441060  RH  090%=      5-min Rain = 0
KONS 201140Z 17009KT M04/M06 A3022 RMK A01 T10441060  RH  090%=      5-min Rain = 0
KONS 201145Z 17009KT M04/M06 A3022 RMK A01 T10431058  RH  090%=      5-min Rain = 0
KONS 201150Z 17008KT M04/M06 A3022 RMK A01 T10421058  RH  090%=      5-min Rain = 0
KONS 201155Z 17008KT M04/M06 A3022 RMK A01 T10431059  RH  089%=      5-min Rain = 0
KONS 201200Z 18009KT M04/M06 A3022 RMK A01 T10431060  RH  089%=      5-min Rain = 0
KONS 201205Z 18008KT M04/M06 A3022 RMK A01 T10431059  RH  090%=      5-min Rain = 0
KONS 201210Z 18008KT M04/M06 A3022 RMK A01 T10431059  RH  090%=      5-min Rain = 0
KONS 201215Z 18009KT M04/M06 A3022 RMK A01 T10421058  RH  090%=      5-min Rain = 0
KONS 201220Z 18010KT M04/M06 A3021 RMK A01 T10421058  RH  090%=      5-min Rain = 0
KONS 201225Z 18009KT M04/M06 A3021 RMK A01 T10411058  RH  089%=      5-min Rain = 0
KONS 201230Z 19008KT M04/M06 A3022 RMK A01 T10411057  RH  089%=      5-min Rain = 0
KONS 201235Z 19008KT M04/M06 A3022 RMK A01 T10391055  RH  089%=      5-min Rain = 0
KONS 201240Z 20007KT M04/M06 A3022 RMK A01 T10391056  RH  089%=      5-min Rain = 0
KONS 201245Z 19006KT M04/M06 A3022 RMK A01 T10401057  RH  089%=      5-min Rain = 0
KONS 201250Z 19006KT M04/M06 A3022 RMK A01 T10411058  RH  089%=      5-min Rain = 0
KONS 201255Z 19007KT M04/M06 A3022 RMK A01 T10421058  RH  089%=      5-min Rain = 0
KONS 201300Z 19007KT M04/M06 A3022 RMK A01 T10411058  RH  090%=      5-min Rain = 0
KONS 201305Z 19006KT M04/M06 A3022 RMK A01 T10421058  RH  089%=      5-min Rain = 0
KONS 201310Z 20006KT M04/M06 A3022 RMK A01 T10421059  RH  090%=      5-min Rain = 0
KONS 201315Z 20007KT M04/M06 A3022 RMK A01 T10421058  RH  090%=      5-min Rain = 0
KONS 201320Z 20007KT M04/M06 A3023 RMK A01 T10421058  RH  089%=      5-min Rain = 0
KONS 201325Z 20008KT M04/M06 A3023 RMK A01 T10421058  RH  089%=      5-min Rain = 0
KONS 201330Z 20008KT M04/M06 A3022 RMK A01 T10421059  RH  089%=      5-min Rain = 0
KONS 201335Z 19008KT M04/M06 A3022 RMK A01 T10431059  RH  089%=      5-min Rain = 0
KONS 201340Z 20008KT M04/M06 A3022 RMK A01 T10431059  RH  089%=      5-min Rain = 0
KONS 201345Z 19009KT M04/M06 A3023 RMK A01 T10421058  RH  089%=      5-min Rain = 0
KONS 201350Z 20008KT M04/M06 A3022 RMK A01 T10421059  RH  089%=      5-min Rain = 0
KONS 201355Z 20010KT M04/M06 A3022 RMK A01 T10411058  RH  089%=      5-min Rain = 0
KONS 201400Z 20010KT M04/M06 A3022 RMK A01 T10401057  RH  089%=      5-min Rain = 0
KONS 201405Z 20009KT M04/M06 A3022 RMK A01 T10401057  RH  089%=      5-min Rain = 0
KONS 201410Z 19009KT M04/M06 A3022 RMK A01 T10391057  RH  089%=      5-min Rain = 0
KONS 201415Z 20010KT M04/M06 A3022 RMK A01 T10381055  RH  089%=      5-min Rain = 0
KONS 201420Z 20010KT M04/M05 A3022 RMK A01 T10361054  RH  089%=      5-min Rain = 0
KONS 201425Z 20010KT M03/M05 A3022 RMK A01 T10341052  RH  088%=      5-min Rain = 0
KONS 201430Z 20010KT M03/M05 A3022 RMK A01 T10301049  RH  088%=      5-min Rain = 0
KONS 201435Z 20010KT M03/M05 A3022 RMK A01 T10271047  RH  087%=      5-min Rain = 0
KONS 201440Z 20010KT M02/M05 A3022 RMK A01 T10241045  RH  086%=      5-min Rain = 0
KONS 201445Z 20011KT M02/M04 A3022 RMK A01 T10211044  RH  085%=      5-min Rain = 0
KONS 201450Z 20011KT M02/M04 A3021 RMK A01 T10181042  RH  085%=      5-min Rain = 0
KONS 201455Z 19011KT M02/M04 A3021 RMK A01 T10161041  RH  084%=      5-min Rain = 0
KONS 201500Z 19012KT M01/M04 A3021 RMK A01 T10131038  RH  084%=      5-min Rain = 0
KONS 201505Z 19011KT M01/M04 A3021 RMK A01 T10091036  RH  083%=      5-min Rain = 0
KONS 201510Z 20011KT M01/M03 A3022 RMK A01 T10061034  RH  082%=      5-min Rain = 0
KONS 201515Z 19011KT M00/M03 A3022 RMK A01 T10011031  RH  081%=      5-min Rain = 0
KONS 201520Z 19011KT 00/M03 A3022 RMK A01 T00031029  RH  080%=      5-min Rain = 0
KONS 201525Z 20011KT 01/M03 A3022 RMK A01 T00061027  RH  079%=      5-min Rain = 0
KONS 201530Z 20013KT 01/M03 A3022 RMK A01 T00091028  RH  077%=      5-min Rain = 0
KONS 201535Z 20012KT 01/M03 A3022 RMK A01 T00111028  RH  076%=      5-min Rain = 0
KONS 201540Z 20013KT 01/M03 A3022 RMK A01 T00141026  RH  076%=      5-min Rain = 0
KONS 201545Z 20015KT 02/M03 A3021 RMK A01 T00161026  RH  075%=      5-min Rain = 0
KONS 201550Z 19016KT 02/M03 A3021 RMK A01 T00191026  RH  073%=      5-min Rain = 0
KONS 201555Z 20014G20KT 02/M03 A3021 RMK A01 T00211025  RH  072%=      5-min Rain = 0
KONS 201600Z 20014KT 03/M02 A3021 RMK A01 T00251023  RH  072%=      5-min Rain = 0
KONS 201605Z 19016KT 03/M02 A3021 RMK A01 T00271023  RH  070%=      5-min Rain = 0
KONS 201610Z 19014KT 03/M02 A3021 RMK A01 T00301022  RH  069%=      5-min Rain = 0
KONS 201615Z 20013KT 03/M02 A3021 RMK A01 T00331021  RH  069%=      5-min Rain = 0
KONS 201620Z 19012KT 04/M02 A3021 RMK A01 T00351020  RH  068%=      5-min Rain = 0
KONS 201625Z 19013KT 04/M02 A3021 RMK A01 T00381020  RH  067%=      5-min Rain = 0
KONS 201630Z 19013KT 04/M02 A3021 RMK A01 T00391020  RH  066%=      5-min Rain = 0
KONS 201635Z 20014KT 05/M02 A3021 RMK A01 T00451018  RH  064%=      5-min Rain = 0
KONS 201640Z 20015KT 05/M02 A302 RMK A01 T00511019  RH  061%=      5-min Rain = 0
KONS 201645Z 20016KT 06/M02 A302 RMK A01 T00561021  RH  059%=      5-min Rain = 0
KONS 201650Z 20016KT 06/M02 A302 RMK A01 T00601020  RH  057%=      5-min Rain = 0
KONS 201655Z 20015G20KT 06/M02 A302 RMK A01 T00641019  RH  056%=      5-min Rain = 0
KONS 201700Z 20016KT 07/M02 A302 RMK A01 T00671020  RH  054%=      5-min Rain = 0
KONS 201705Z 20016KT 07/M02 A302 RMK A01 T00681022  RH  053%=      5-min Rain = 0
KONS 201710Z 20015G20KT 07/M02 A3019 RMK A01 T00731021  RH  052%=      5-min Rain = 0
KONS 201715Z 20015KT 08/M02 A3019 RMK A01 T00751023  RH  050%=      5-min Rain = 0
KONS 201720Z 20014KT 08/M02 A3019 RMK A01 T00771023  RH  050%=      5-min Rain = 0
KONS 201725Z 20014KT 08/M02 A3019 RMK A01 T00811024  RH  048%=      5-min Rain = 0
KONS 201730Z 21014KT 08/M03 A3019 RMK A01 T00831026  RH  047%=      5-min Rain = 0
KONS 201735Z 21013KT 09/M02 A3019 RMK A01 T00851023  RH  047%=      5-min Rain = 0
KONS 201740Z 21014KT 09/M02 A3018 RMK A01 T00871024  RH  046%=      5-min Rain = 0
KONS 201745Z 21013KT 09/M02 A3018 RMK A01 T00911023  RH  045%=      5-min Rain = 0
KONS 201750Z 21013KT 10/M03 A3018 RMK A01 T00971026  RH  042%=      5-min Rain = 0
KONS 201755Z 21013KT 10/M02 A3018 RMK A01 T01041024  RH  041%=      5-min Rain = 0
KONS 201800Z 21014KT 10/M03 A3018 RMK A01 T01031029  RH  040%=      5-min Rain = 0
KONS 201805Z 22014KT 11/M03 A3017 RMK A01 T01051032  RH  039%=      5-min Rain = 0
KONS 201810Z 22014KT 11/M03 A3017 RMK A01 T01061032  RH  038%=      5-min Rain = 0
KONS 201815Z 22015G20KT 11/M03 A3017 RMK A01 T01081032  RH  038%=      5-min Rain = 0
KONS 201820Z 22014KT 11/M03 A3016 RMK A01 T01121030  RH  037%=      5-min Rain = 0
KONS 201825Z 23015G20KT 11/M04 A3016 RMK A01 T01131035  RH  036%=      5-min Rain = 0
KONS 201830Z 23015KT 11/M04 A3015 RMK A01 T01111038  RH  035%=      5-min Rain = 0
KONS 201835Z 22016KT 12/M04 A3015 RMK A01 T01151039  RH  034%=      5-min Rain = 0
KONS 201840Z 23014KT 12/M04 A3015 RMK A01 T01181036  RH  034%=      5-min Rain = 0
KONS 201845Z 23015G20KT 12/M04 A3015 RMK A01 T01201039  RH  033%=      5-min Rain = 0
KONS 201850Z 23015KT 12/M04 A3014 RMK A01 T01181040  RH  033%=      5-min Rain = 0
KONS 201855Z 23013KT 13/M04 A3013 RMK A01 T01261036  RH  033%=      5-min Rain = 0
KONS 201900Z 24015G21KT 14/M04 A3013 RMK A01 T01361038  RH  030%=      5-min Rain = 0
KONS 201905Z 24015KT 14/M04 A3012 RMK A01 T01361041  RH  029%=      5-min Rain = 0
KONS 201910Z 24017G24KT 14/M04 A3012 RMK A01 T01401041  RH  029%=      5-min Rain = 0
KONS 201915Z 23017G22KT 14/M04 A3012 RMK A01 T01391042  RH  028%=      5-min Rain = 0
KONS 201920Z 23018KT 14/M04 A3011 RMK A01 T01381043  RH  028%=      5-min Rain = 0
KONS 201925Z 24017G22KT 14/M04 A3011 RMK A01 T01381043  RH  029%=      5-min Rain = 0
KONS 201930Z 23016G23KT 14/M04 A301 RMK A01 T01381040  RH  029%=      5-min Rain = 0
KONS 201935Z 23020KT 14/M04 A301 RMK A01 T01391044  RH  028%=      5-min Rain = 0
KONS 201940Z 23019KT 14/M05 A301 RMK A01 T01381045  RH  028%=      5-min Rain = 0
KONS 201945Z 24015KT 14/M04 A3009 RMK A01 T01411041  RH  028%=      5-min Rain = 0
KONS 201950Z 24017KT 15/M04 A3009 RMK A01 T01451040  RH  028%=      5-min Rain = 0
KONS 201955Z 25015G20KT 15/M04 A3009 RMK A01 T01491041  RH  027%=      5-min Rain = 0
KONS 202000Z 24015G20KT 15/M04 A3009 RMK A01 T01501041  RH  027%=      5-min Rain = 0
KONS 202005Z 24015G20KT 15/M04 A3008 RMK A01 T01531043  RH  026%=      5-min Rain = 0
KONS 202010Z 24015KT 15/M04 A3008 RMK A01 T01541043  RH  026%=      5-min Rain = 0
KONS 202015Z 24017KT 16/M04 A3008 RMK A01 T01561044  RH  025%=      5-min Rain = 0
KONS 202020Z 23017KT 16/M04 A3007 RMK A01 T01581044  RH  025%=      5-min Rain = 0
KONS 202025Z 24014KT 16/M04 A3007 RMK A01 T01591042  RH  025%=      5-min Rain = 0
KONS 202030Z 23016G21KT 17/M04 A3007 RMK A01 T01661043  RH  024%=      5-min Rain = 0
KONS 202035Z 24016G22KT 17/M05 A3006 RMK A01 T01701045  RH  023%=      5-min Rain = 0
KONS 202040Z 24016KT 17/M04 A3006 RMK A01 T01721043  RH  023%=      5-min Rain = 0
KONS 202045Z 24017G25KT 18/M05 A3006 RMK A01 T01781045  RH  022%=      5-min Rain = 0
KONS 202050Z 25017G26KT 18/M05 A3006 RMK A01 T01781050  RH  021%=      5-min Rain = 0
KONS 202055Z 23017G22KT 18/M05 A3005 RMK A01 T01771045  RH  022%=      5-min Rain = 0
KONS 202100Z 23017G23KT 17/M05 A3005 RMK A01 T01721050  RH  022%=      5-min Rain = 0
KONS 202105Z 24015G23KT 17/M05 A3005 RMK A01 T01731048  RH  022%=      5-min Rain = 0
KONS 202110Z 24016G21KT 18/M05 A3005 RMK A01 T01751050  RH  021%=      5-min Rain = 0
KONS 202115Z 24016KT 18/M05 A3005 RMK A01 T01761050  RH  021%=      5-min Rain = 0
KONS 202120Z 24016G21KT 18/M05 A3005 RMK A01 T01771050  RH  021%=      5-min Rain = 0
KONS 202125Z 24013KT 18/M05 A3004 RMK A01 T01791046  RH  021%=      5-min Rain = 0
KONS 202130Z 25014G19KT 18/M05 A3004 RMK A01 T01811045  RH  021%=      5-min Rain = 0
KONS 202135Z 24016G22KT 18/M05 A3004 RMK A01 T01821045  RH  021%=      5-min Rain = 0
KONS 202140Z 25016KT 18/M05 A3004 RMK A01 T01801045  RH  021%=      5-min Rain = 0
KONS 202145Z 25016G21KT 18/M04 A3004 RMK A01 T01811044  RH  021%=      5-min Rain = 0
KONS 202150Z 25014G20KT 18/M04 A3004 RMK A01 T01841043  RH  021%=      5-min Rain = 0
KONS 202155Z 24016KT 18/M04 A3004 RMK A01 T01831043  RH  021%=      5-min Rain = 0
KONS 202200Z 24016G22KT 18/M04 A3004 RMK A01 T01821042  RH  022%=      5-min Rain = 0
KONS 202205Z 25017KT 18/M05 A3004 RMK A01 T01821048  RH  021%=      5-min Rain = 0
KONS 202210Z 24014KT 18/M05 A3004 RMK A01 T01821047  RH  021%=      5-min Rain = 0
KONS 202215Z 25012KT 18/M04 A3004 RMK A01 T01841042  RH  021%=      5-min Rain = 0
KONS 202220Z 25014KT 19/M05 A3004 RMK A01 T01851048  RH  020%=      5-min Rain = 0
KONS 202225Z 22015G20KT 18/M05 A3004 RMK A01 T01831048  RH  021%=      5-min Rain = 0
KONS 202230Z 21015KT 18/M05 A3004 RMK A01 T01761051  RH  021%=      5-min Rain = 0
KONS 202235Z 20014KT 17/M05 A3004 RMK A01 T01741048  RH  022%=      5-min Rain = 0
KONS 202240Z 20013KT 18/M05 A3004 RMK A01 T01751047  RH  022%=      5-min Rain = 0
KONS 202245Z 21011KT 17/M05 A3004 RMK A01 T01731047  RH  022%=      5-min Rain = 0
KONS 202250Z 21010KT 17/M04 A3004 RMK A01 T01711044  RH  023%=      5-min Rain = 0
KONS 202255Z 21010KT 17/M05 A3004 RMK A01 T01721047  RH  022%=      5-min Rain = 0
KONS 202300Z 20010KT 17/M04 A3004 RMK A01 T01701043  RH  023%=      5-min Rain = 0
KONS 202305Z 19011KT 17/M04 A3003 RMK A01 T01651041  RH  024%=      5-min Rain = 0
KONS 202310Z 19010KT 16/M04 A3003 RMK A01 T01581037  RH  026%=      5-min Rain = 0
KONS 202315Z 19009KT 16/M04 A3003 RMK A01 T01551035  RH  027%=      5-min Rain = 0
KONS 202320Z 20009KT 15/M03 A3003 RMK A01 T01521034  RH  028%=      5-min Rain = 0
KONS 202325Z 20009KT 15/M03 A3002 RMK A01 T01461034  RH  029%=      5-min Rain = 0
KONS 202330Z 19009KT 14/M03 A3002 RMK A01 T01401034  RH  030%=      5-min Rain = 0
KONS 202335Z 19009KT 14/M04 A3002 RMK A01 T01361037  RH  030%=      5-min Rain = 0
KONS 202340Z 18009KT 13/M04 A3002 RMK A01 T01341037  RH  031%=      5-min Rain = 0
KONS 202345Z 18009KT 13/M04 A3002 RMK A01 T01331038  RH  031%=      5-min Rain = 0
KONS 202350Z 18009KT 13/M04 A3002 RMK A01 T01261037  RH  032%=      5-min Rain = 0
KONS 202355Z 18009KT 12/M04 A3002 RMK A01 T01201039  RH  033%=      5-min Rain = 0
KONS 210000Z 18010KT 12/M04 A3002 RMK A01 T01161043  RH  033%=      5-min Rain = 0
KONS 210005Z 18009KT 11/M05 A3002 RMK A01 T01121045  RH  033%=      5-min Rain = 0
KONS 210010Z 18009KT 11/M04 A3002 RMK A01 T01051044  RH  035%=      5-min Rain = 0
KONS 210015Z 18009KT 10/M05 A3003 RMK A01 T01001048  RH  035%=      5-min Rain = 0
KONS 210020Z 18010KT 10/M05 A3003 RMK A01 T01001053  RH  034%=      5-min Rain = 0
KONS 210025Z 17009KT 10/M06 A3003 RMK A01 T00991055  RH  034%=      5-min Rain = 0
KONS 210030Z 17009KT 09/M06 A3003 RMK A01 T00931059  RH  034%=      5-min Rain = 0
KONS 210035Z 17009KT 09/M06 A3002 RMK A01 T00891058  RH  035%=      5-min Rain = 0
KONS 210040Z 17009KT 09/M06 A3002 RMK A01 T00861056  RH  036%=      5-min Rain = 0
KONS 210045Z 17010KT 08/M06 A3002 RMK A01 T00841057  RH  037%=      5-min Rain = 0
KONS 210050Z 17010KT 08/M06 A3003 RMK A01 T00841059  RH  036%=      5-min Rain = 0
KONS 210055Z 17011KT 09/M06 A3002 RMK A01 T00851060  RH  036%=      5-min Rain = 0
KONS 210100Z 17011KT 08/M06 A3002 RMK A01 T00841061  RH  035%=      5-min Rain = 0
KONS 210105Z 17012KT 08/M06 A3002 RMK A01 T00811062  RH  036%=      5-min Rain = 0
KONS 210110Z 17011KT 08/M06 A3002 RMK A01 T00791063  RH  036%=      5-min Rain = 0
KONS 210115Z 17011KT 08/M06 A3002 RMK A01 T00771063  RH  037%=      5-min Rain = 0
KONS 210120Z 17010KT 08/M06 A3002 RMK A01 T00751063  RH  037%=      5-min Rain = 0
KONS 210125Z 17010KT 07/M06 A3002 RMK A01 T00711063  RH  038%=      5-min Rain = 0
KONS 210130Z 17011KT 07/M06 A3002 RMK A01 T00721064  RH  038%=      5-min Rain = 0
KONS 210135Z 17011KT 07/M06 A3002 RMK A01 T00721064  RH  038%=      5-min Rain = 0
KONS 210140Z 17011KT 07/M06 A3002 RMK A01 T00691064  RH  039%=      5-min Rain = 0
KONS 210145Z 17011KT 07/M06 A3002 RMK A01 T00691063  RH  039%=      5-min Rain = 0
KONS 210150Z 17011KT 07/M06 A3002 RMK A01 T00671063  RH  039%=      5-min Rain = 0
KONS 210155Z 17012KT 07/M06 A3001 RMK A01 T00671063  RH  039%=      5-min Rain = 0
KONS 210200Z 17012KT 07/M06 A3001 RMK A01 T00651063  RH  040%=      5-min Rain = 0
KONS 210205Z 18012KT 06/M06 A3001 RMK A01 T00611062  RH  041%=      5-min Rain = 0
KONS 210210Z 17012KT 06/M06 A3001 RMK A01 T00551061  RH  043%=      5-min Rain = 0
KONS 210215Z 17012KT 06/M06 A3001 RMK A01 T00551062  RH  043%=      5-min Rain = 0
KONS 210220Z 18013KT 06/M06 A3001 RMK A01 T00591064  RH  041%=      5-min Rain = 0
KONS 210225Z 17012KT 06/M06 A3001 RMK A01 T00601064  RH  041%=      5-min Rain = 0
KONS 210230Z 17012KT 06/M06 A3001 RMK A01 T00591064  RH  041%=      5-min Rain = 0
KONS 210235Z 18012KT 06/M06 A3001 RMK A01 T00581063  RH  042%=      5-min Rain = 0
KONS 210240Z 18012KT 06/M06 A3001 RMK A01 T00551063  RH  043%=      5-min Rain = 0
KONS 210245Z 18011KT 05/M06 A3001 RMK A01 T00521060  RH  045%=      5-min Rain = 0
KONS 210250Z 18011KT 05/M06 A3001 RMK A01 T00491058  RH  046%=      5-min Rain = 0
KONS 210255Z 18011KT 05/M06 A3001 RMK A01 T00491058  RH  047%=      5-min Rain = 0
KONS 210300Z 18011KT 05/M06 A30 RMK A01 T00481058  RH  047%=      5-min Rain = 0
KONS 210305Z 18010KT 05/M06 A30 RMK A01 T00461058  RH  047%=      5-min Rain = 0
KONS 210310Z 18010KT 04/M06 A30 RMK A01 T00421057  RH  049%=      5-min Rain = 0
KONS 210315Z 19010KT 04/M06 A30 RMK A01 T00391057  RH  050%=      5-min Rain = 0
KONS 210320Z 19010KT 04/M06 A30 RMK A01 T00381057  RH  050%=      5-min Rain = 0
KONS 210325Z 19010KT 04/M06 A30 RMK A01 T00351056  RH  052%=      5-min Rain = 0
KONS 210330Z 19010KT 03/M06 A30 RMK A01 T00321056  RH  053%=      5-min Rain = 0
KONS 210335Z 19010KT 03/M06 A30 RMK A01 T00281056  RH  054%=      5-min Rain = 0
KONS 210340Z 19010KT 03/M06 A2999 RMK A01 T00271056  RH  055%=      5-min Rain = 0
KONS 210345Z 19010KT 03/M06 A2999 RMK A01 T00251056  RH  056%=      5-min Rain = 0
KONS 210350Z 19011KT 03/M06 A2999 RMK A01 T00281056  RH  055%=      5-min Rain = 0
KONS 210355Z 19010KT 03/M06 A2999 RMK A01 T00291056  RH  054%=      5-min Rain = 0
KONS 210400Z 20010KT 03/M06 A2999 RMK A01 T00291057  RH  054%=      5-min Rain = 0
KONS 210405Z 20010KT 03/M06 A2999 RMK A01 T00261057  RH  055%=      5-min Rain = 0
KONS 210410Z 20011KT 03/M06 A2999 RMK A01 T00251058  RH  055%=      5-min Rain = 0
KONS 210415Z 20011KT 02/M06 A2999 RMK A01 T00221058  RH  056%=      5-min Rain = 0
KONS 210420Z 20011KT 02/M06 A2999 RMK A01 T00191058  RH  057%=      5-min Rain = 0
KONS 210425Z 21010KT 02/M06 A30 RMK A01 T00211059  RH  056%=      5-min Rain = 0
KONS 210430Z 21010KT 02/M06 A30 RMK A01 T00221060  RH  055%=      5-min Rain = 0
KONS 210435Z 21010KT 02/M06 A30 RMK A01 T00221060  RH  055%=      5-min Rain = 0
KONS 210440Z 21010KT 02/M06 A30 RMK A01 T00231060  RH  055%=      5-min Rain = 0
KONS 210445Z 21010KT 02/M06 A2999 RMK A01 T00221060  RH  055%=      5-min Rain = 0
KONS 210450Z 21011KT 02/M06 A2999 RMK A01 T00201060  RH  056%=      5-min Rain = 0
KONS 210455Z 21011KT 02/M06 A2999 RMK A01 T00201061  RH  056%=      5-min Rain = 0
KONS 210500Z 21012KT 03/M06 A2999 RMK A01 T00271062  RH  053%=      5-min Rain = 0
KONS 210505Z 21012KT 03/M06 A2999 RMK A01 T00331062  RH  050%=      5-min Rain = 0
KONS 210510Z 21012KT 03/M06 A2999 RMK A01 T00341062  RH  050%=      5-min Rain = 0
KONS 210515Z 21012KT 03/M06 A2999 RMK A01 T00341062  RH  050%=      5-min Rain = 0
KONS 210520Z 21012KT 04/M06 A2999 RMK A01 T00381062  RH  049%=      5-min Rain = 0
KONS 210525Z 20011KT 04/M06 A2999 RMK A01 T00381061  RH  049%=      5-min Rain = 0
KONS 210530Z 20010KT 04/M06 A2999 RMK A01 T00361060  RH  050%=      5-min Rain = 0
KONS 210535Z 21010KT 03/M06 A2999 RMK A01 T00331060  RH  051%=      5-min Rain = 0
KONS 210540Z 21009KT 03/M06 A2999 RMK A01 T00311060  RH  052%=      5-min Rain = 0
KONS 210545Z 21009KT 03/M06 A2998 RMK A01 T00311060  RH  052%=      5-min Rain = 0
KONS 210550Z 21009KT 03/M06 A2998 RMK A01 T00301060  RH  052%=      5-min Rain = 0
KONS 210555Z 21009KT 03/M06 A2998 RMK A01 T00301061  RH  052%=      5-min Rain = 0

Page generated in 0.0095 seconds.